createdAt,value
2018-03-31T00:01:16.885Z,99973.77
2018-03-31T00:03:44.716Z,99960.63
2018-03-31T00:06:12.418Z,99952.36
2018-03-31T00:08:40.653Z,99945.81
2018-03-31T00:11:09.336Z,99946.91
2018-03-31T00:13:37.210Z,99935.95
2018-03-31T00:16:05.533Z,99931.57
2018-03-31T00:18:33.604Z,99925.47
2018-03-31T00:21:01.432Z,99924.52
2018-03-31T00:23:29.289Z,99925.57
2018-03-31T00:25:57.197Z,99925.28
2018-03-31T00:28:24.861Z,99932.87
2018-03-31T00:30:52.515Z,99934.47
2018-03-31T00:33:20.186Z,99934.05
2018-03-31T00:35:47.849Z,99931.92
2018-03-31T00:38:15.666Z,99921.48
2018-03-31T00:40:43.789Z,99917.13
2018-03-31T00:43:11.622Z,99918.03
2018-03-31T00:45:39.522Z,99915.30
2018-03-31T00:48:07.240Z,99911.66
2018-03-31T00:50:34.839Z,99906.11
2018-03-31T00:53:03.042Z,99901.81
2018-03-31T00:55:30.804Z,99903.63
2018-03-31T00:57:58.631Z,99909.41
2018-03-31T01:00:26.659Z,99906.21
2018-03-31T01:02:54.376Z,99908.48
2018-03-31T01:05:22.211Z,99897.40
2018-03-31T01:07:50.320Z,99897.20
2018-03-31T01:10:17.979Z,99897.33
2018-03-31T01:12:45.856Z,99901.36
2018-03-31T01:15:13.342Z,99901.52
2018-03-31T01:17:40.967Z,99900.11
2018-03-31T01:20:08.885Z,99906.06
2018-03-31T01:22:36.849Z,99896.84
2018-03-31T01:25:04.562Z,99898.59
2018-03-31T01:27:32.435Z,99881.50
2018-03-31T01:30:00.089Z,99878.04
2018-03-31T01:32:27.911Z,99878.74
2018-03-31T01:34:55.652Z,99879.72
2018-03-31T01:37:23.322Z,99874.27
2018-03-31T01:39:50.940Z,99886.05
2018-03-31T01:42:18.612Z,99892.66
2018-03-31T01:44:46.192Z,99894.48
2018-03-31T01:47:14.149Z,99890.95
2018-03-31T01:49:41.847Z,99885.48
2018-03-31T01:52:09.662Z,99884.91
2018-03-31T01:54:37.528Z,99881.30
2018-03-31T01:57:05.194Z,99867.36
2018-03-31T01:59:33.046Z,99865.91
2018-03-31T02:02:00.721Z,99866.63
2018-03-31T02:04:28.379Z,99867.52
2018-03-31T02:06:56.205Z,99866.31
2018-03-31T02:09:23.908Z,99869.05
2018-03-31T02:11:51.778Z,99855.91
2018-03-31T02:14:19.605Z,99845.33
2018-03-31T02:16:47.569Z,99843.59
2018-03-31T02:19:15.244Z,99840.55
2018-03-31T02:21:42.826Z,99835.01
2018-03-31T02:24:10.640Z,99826.45
2018-03-31T02:26:38.755Z,99831.17
2018-03-31T02:29:06.594Z,99836.73
2018-03-31T02:31:34.569Z,99814.46
2018-03-31T02:34:02.220Z,99811.73
2018-03-31T02:36:30.095Z,99812.95
2018-03-31T02:38:57.692Z,99827.20
2018-03-31T02:41:25.774Z,99831.11
2018-03-31T02:43:54.043Z,99823.65
2018-03-31T02:46:22.106Z,99819.27
2018-03-31T02:48:50.022Z,99806.12
2018-03-31T02:51:17.816Z,99802.70
2018-03-31T02:53:45.904Z,99803.98
2018-03-31T02:56:13.568Z,99793.55
2018-03-31T02:58:41.439Z,99784.84
2018-03-31T03:01:09.680Z,99792.77
2018-03-31T03:03:37.590Z,99788.83
2018-03-31T03:06:05.461Z,99788.10
2018-03-31T03:08:33.174Z,99780.37
2018-03-31T03:11:00.778Z,99772.70
2018-03-31T03:13:28.588Z,99754.30
2018-03-31T03:15:56.305Z,99760.37
2018-03-31T03:18:23.965Z,99755.69
2018-03-31T03:20:51.624Z,99745.30
2018-03-31T03:23:19.497Z,99754.77
2018-03-31T03:25:47.151Z,99751.84
2018-03-31T03:28:15.024Z,99736.55
2018-03-31T03:30:42.839Z,99738.29
2018-03-31T03:33:10.830Z,99737.88
2018-03-31T03:35:38.622Z,99752.19
2018-03-31T03:38:06.287Z,99760.72
2018-03-31T03:40:34.056Z,99749.83
2018-03-31T03:43:02.608Z,99743.09
2018-03-31T03:45:30.899Z,99748.31
2018-03-31T03:47:58.945Z,99754.47
2018-03-31T03:50:26.420Z,99754.91
2018-03-31T03:52:54.302Z,99757.30
2018-03-31T03:55:22.171Z,99751.72
2018-03-31T03:57:49.982Z,99753.19
2018-03-31T04:03:13.137Z,99752.45
2018-03-31T04:05:40.513Z,99749.47
2018-03-31T04:08:07.884Z,99748.67
2018-03-31T04:10:35.240Z,99736.58
2018-03-31T04:13:02.612Z,99737.27
2018-03-31T04:15:30.090Z,99733.00
2018-03-31T04:17:57.468Z,99733.95
2018-03-31T04:20:24.860Z,99731.86
2018-03-31T04:22:52.233Z,99732.70
2018-03-31T04:25:19.666Z,99734.86
2018-03-31T04:27:47.024Z,99729.97
2018-03-31T04:30:14.448Z,99723.18
2018-03-31T04:32:41.799Z,99727.28
2018-03-31T04:35:09.570Z,99726.14
2018-03-31T04:37:36.917Z,99722.05
2018-03-31T04:40:04.313Z,99718.01
2018-03-31T04:42:31.657Z,99722.64
2018-03-31T04:44:59.047Z,99715.41
2018-03-31T04:47:26.604Z,99713.35
2018-03-31T04:49:54.389Z,99722.66
2018-03-31T04:52:22.468Z,99720.14
2018-03-31T04:54:49.810Z,99721.52
2018-03-31T04:57:17.177Z,99720.27
2018-03-31T04:59:44.768Z,99716.59
2018-03-31T05:02:12.165Z,99713.45
2018-03-31T05:04:39.832Z,99716.25
2018-03-31T05:07:07.281Z,99720.46
2018-03-31T05:09:34.645Z,99719.33
2018-03-31T05:12:02.053Z,99721.06
2018-03-31T05:14:29.757Z,99730.41
2018-03-31T05:16:57.352Z,99730.53
2018-03-31T05:19:24.794Z,99727.36
2018-03-31T05:21:53.311Z,99727.24
2018-03-31T05:24:21.025Z,99723.77
2018-03-31T05:26:49.832Z,99716.68
2018-03-31T05:29:18.257Z,99720.55
2018-03-31T05:31:46.068Z,99714.95
2018-03-31T05:34:14.257Z,99709.55
2018-03-31T05:36:41.979Z,99710.92
2018-03-31T05:39:10.417Z,99708.97
2018-03-31T05:41:38.349Z,99707.64
2018-03-31T05:44:06.637Z,99696.59
2018-03-31T05:46:34.307Z,99686.02
2018-03-31T05:49:01.679Z,99679.23
2018-03-31T05:51:29.081Z,99685.98
2018-03-31T05:53:56.556Z,99675.19
2018-03-31T05:56:23.941Z,99681.01
2018-03-31T05:58:51.431Z,99673.36
2018-03-31T06:01:18.794Z,99675.41
2018-03-31T06:03:46.168Z,99673.13
2018-03-31T06:06:13.545Z,99670.48
2018-03-31T06:08:41.052Z,99663.67
2018-03-31T06:11:08.414Z,99660.42
2018-03-31T06:13:35.953Z,99654.57
2018-03-31T06:16:03.300Z,99643.60
2018-03-31T06:18:30.660Z,99631.13
2018-03-31T06:20:58.147Z,99625.91
2018-03-31T06:23:25.539Z,99624.14
2018-03-31T06:25:52.890Z,99621.86
2018-03-31T06:28:20.424Z,99613.46
2018-03-31T06:30:47.762Z,99618.32
2018-03-31T06:33:15.125Z,99619.67
2018-03-31T06:35:42.489Z,99624.02
2018-03-31T06:38:10.093Z,99630.52
2018-03-31T06:40:37.464Z,99627.50
2018-03-31T06:43:04.809Z,99615.77
2018-03-31T06:45:32.266Z,99625.11
2018-03-31T06:47:59.606Z,99618.75
2018-03-31T06:50:26.960Z,99632.25
2018-03-31T06:52:54.292Z,99631.33
2018-03-31T06:55:21.779Z,99630.48
2018-03-31T06:57:49.331Z,99628.48
2018-03-31T07:00:16.708Z,99624.55
2018-03-31T07:02:44.048Z,99619.71
2018-03-31T07:05:11.413Z,99620.61
2018-03-31T07:07:38.833Z,99624.98
2018-03-31T07:10:06.249Z,99619.03
2018-03-31T07:12:33.625Z,99614.42
2018-03-31T07:15:01.029Z,99619.31
2018-03-31T07:17:28.426Z,99612.40
2018-03-31T07:19:55.792Z,99610.87
2018-03-31T07:22:23.170Z,99605.48
2018-03-31T07:24:50.520Z,99611.98
2018-03-31T07:27:18.085Z,99601.14
2018-03-31T07:29:45.468Z,99601.56
2018-03-31T07:32:12.939Z,99594.66
2018-03-31T07:34:40.276Z,99595.63
2018-03-31T07:37:07.753Z,99593.32
2018-03-31T07:39:35.101Z,99600.76
2018-03-31T07:42:02.508Z,99601.03
2018-03-31T07:44:32.765Z,99594.40
2018-03-31T07:47:00.144Z,99598.33
2018-03-31T07:49:27.497Z,99601.17
2018-03-31T07:51:54.919Z,99601.56
2018-03-31T07:54:25.044Z,99591.84
2018-03-31T07:56:52.433Z,99595.34
2018-03-31T07:59:19.760Z,99594.78
2018-03-31T08:01:47.165Z,99592.20
2018-03-31T08:04:14.501Z,99593.03
2018-03-31T08:06:41.926Z,99582.22
2018-03-31T08:09:09.303Z,99579.33
2018-03-31T08:11:36.712Z,99576.34
2018-03-31T08:14:04.049Z,99578.55
2018-03-31T08:16:31.450Z,99565.44
2018-03-31T08:18:58.772Z,99567.36
2018-03-31T08:21:26.232Z,99563.91
2018-03-31T08:23:53.755Z,99569.14
2018-03-31T08:26:21.130Z,99560.16
2018-03-31T08:28:48.456Z,99553.41
2018-03-31T08:31:15.847Z,99555.32
2018-03-31T08:33:43.172Z,99553.99
2018-03-31T08:36:10.577Z,99547.20
2018-03-31T08:38:37.940Z,99547.90
2018-03-31T08:41:05.330Z,99542.67
2018-03-31T08:43:32.704Z,99539.78
2018-03-31T08:46:00.126Z,99541.34
2018-03-31T08:48:27.502Z,99547.48
2018-03-31T08:50:54.896Z,99545.52
2018-03-31T08:53:22.243Z,99555.23
2018-03-31T08:55:49.704Z,99550.74
2018-03-31T08:58:17.052Z,99550.79
2018-03-31T09:00:44.425Z,99541.56
2018-03-31T09:03:11.934Z,99547.69
2018-03-31T09:05:39.411Z,99540.09
2018-03-31T09:08:06.789Z,99535.03
2018-03-31T09:10:34.132Z,99530.91
2018-03-31T09:13:01.502Z,99529.88
2018-03-31T09:15:28.859Z,99516.83
2018-03-31T09:17:56.232Z,99524.77
2018-03-31T09:20:23.818Z,99518.75
2018-03-31T09:22:51.308Z,99515.52
2018-03-31T09:25:18.648Z,99504.78
2018-03-31T09:27:46.045Z,99509.46
2018-03-31T09:30:13.397Z,99506.69
2018-03-31T09:32:40.761Z,99501.12
2018-03-31T09:35:08.120Z,99495.75
2018-03-31T09:37:35.630Z,99496.86
2018-03-31T09:40:03.024Z,99483.50
2018-03-31T09:42:30.420Z,99477.18
2018-03-31T09:44:57.841Z,99473.47
2018-03-31T09:47:25.216Z,99470.07
2018-03-31T09:49:52.621Z,99466.52
2018-03-31T09:52:20.213Z,99463.38
2018-03-31T09:54:47.572Z,99476.48
2018-03-31T09:57:14.917Z,99483.73
2018-03-31T09:59:42.329Z,99486.83
2018-03-31T10:02:09.677Z,99486.83
2018-03-31T10:04:43.520Z,99484.68
2018-03-31T10:07:10.889Z,99485.20
2018-03-31T10:09:38.300Z,99491.16
2018-03-31T10:12:05.879Z,99494.74
2018-03-31T10:14:33.268Z,99499.35
2018-03-31T10:17:00.739Z,99498.95
2018-03-31T10:19:28.116Z,99510.82
2018-03-31T10:21:55.501Z,99500.58
2018-03-31T10:24:22.973Z,99511.39
2018-03-31T10:26:50.724Z,99505.29
2018-03-31T10:29:18.154Z,99500.06
2018-03-31T10:31:45.513Z,99492.42
2018-03-31T10:34:12.840Z,99497.31
2018-03-31T10:36:40.244Z,99484.79
2018-03-31T10:39:07.768Z,99488.63
2018-03-31T10:41:35.516Z,99493.84
2018-03-31T10:44:02.865Z,99486.27
2018-03-31T10:46:30.292Z,99485.14
2018-03-31T10:48:57.612Z,99479.48
2018-03-31T10:51:24.980Z,99489.98
2018-03-31T10:53:52.343Z,99483.25
2018-03-31T10:56:19.716Z,99484.09
2018-03-31T10:58:47.097Z,99493.38
2018-03-31T11:01:14.474Z,99490.72
2018-03-31T11:03:41.836Z,99491.66
2018-03-31T11:06:09.221Z,99485.79
2018-03-31T11:08:36.572Z,99476.98
2018-03-31T11:11:03.992Z,99477.66
2018-03-31T11:13:31.373Z,99485.42
2018-03-31T11:15:58.933Z,99493.66
2018-03-31T11:18:26.341Z,99501.12
2018-03-31T11:20:53.713Z,99495.92
2018-03-31T11:23:21.056Z,99494.20
2018-03-31T11:25:55.237Z,99487.95
2018-03-31T11:28:22.620Z,99480.28
2018-03-31T11:30:50.122Z,99472.23
2018-03-31T11:33:17.466Z,99466.08
2018-03-31T11:35:44.835Z,99474.34
2018-03-31T11:38:12.216Z,99466.09
2018-03-31T11:40:39.577Z,99469.31
2018-03-31T11:43:07.061Z,99472.58
2018-03-31T11:45:34.405Z,99457.29
2018-03-31T11:48:01.770Z,99454.70
2018-03-31T11:50:29.167Z,99455.29
2018-03-31T11:52:56.564Z,99457.09
2018-03-31T11:55:23.932Z,99449.47
2018-03-31T11:57:51.284Z,99435.97
2018-03-31T12:00:18.648Z,99435.67
2018-03-31T12:02:46.004Z,99441.98
2018-03-31T12:05:13.369Z,99446.98
2018-03-31T12:07:40.773Z,99463.14
2018-03-31T12:10:08.143Z,99456.73
2018-03-31T12:12:35.504Z,99445.23
2018-03-31T12:15:03.071Z,99428.53
2018-03-31T12:17:30.447Z,99424.86
2018-03-31T12:19:57.799Z,99422.42
2018-03-31T12:22:25.209Z,99428.02
2018-03-31T12:24:53.122Z,99427.70
2018-03-31T12:27:20.492Z,99411.23
2018-03-31T12:32:21.489Z,99418.96
2018-03-31T12:34:48.933Z,99424.50
2018-03-31T12:37:16.335Z,99415.66
2018-03-31T12:39:43.780Z,99412.16
2018-03-31T12:42:11.212Z,99416.38
2018-03-31T12:44:38.850Z,99411.47
2018-03-31T12:47:06.345Z,99409.95
2018-03-31T12:49:33.749Z,99415.38
2018-03-31T12:52:03.743Z,99415.80
2018-03-31T12:54:31.542Z,99421.05
2018-03-31T12:56:58.912Z,99417.87
2018-03-31T12:59:27.004Z,99427.95
2018-03-31T13:01:54.356Z,99430.52
2018-03-31T13:04:21.735Z,99431.39
2018-03-31T13:06:49.089Z,99426.67
2018-03-31T13:09:16.476Z,99434.59
2018-03-31T13:11:43.839Z,99433.89
2018-03-31T13:14:11.253Z,99425.62
2018-03-31T13:16:38.601Z,99415.69
2018-03-31T13:19:05.971Z,99411.23
2018-03-31T13:21:33.381Z,99415.43
2018-03-31T13:24:00.812Z,99418.41
2018-03-31T13:26:28.181Z,99426.59
2018-03-31T13:28:55.565Z,99432.98
2018-03-31T13:31:22.969Z,99427.44
2018-03-31T13:33:50.361Z,99422.95
2018-03-31T13:36:17.741Z,99421.78
2018-03-31T13:38:45.140Z,99427.40
2018-03-31T13:41:15.288Z,99425.28
2018-03-31T13:43:42.633Z,99420.44
2018-03-31T13:46:10.010Z,99416.16
2018-03-31T13:48:37.400Z,99413.70
2018-03-31T13:51:04.752Z,99407.67
2018-03-31T13:53:32.085Z,99402.96
2018-03-31T13:55:59.432Z,99398.11
2018-03-31T13:58:26.773Z,99396.05
2018-03-31T14:00:54.142Z,99394.25
2018-03-31T14:03:21.523Z,99399.77
2018-03-31T14:05:48.904Z,99399.28
2018-03-31T14:08:19.038Z,99399.39
2018-03-31T14:10:46.473Z,99396.28
2018-03-31T14:13:20.257Z,99399.00
2018-03-31T14:15:47.641Z,99390.52
2018-03-31T14:18:14.973Z,99395.73
2018-03-31T14:20:42.573Z,99386.23
2018-03-31T14:23:09.973Z,99388.88
2018-03-31T14:25:37.436Z,99392.09
2018-03-31T14:28:04.764Z,99392.56
2018-03-31T14:30:32.136Z,99390.61
2018-03-31T14:32:59.532Z,99390.79
2018-03-31T14:35:26.982Z,99388.80
2018-03-31T14:37:54.446Z,99392.29
2018-03-31T14:40:21.832Z,99392.27
2018-03-31T14:42:49.180Z,99390.79
2018-03-31T14:45:16.559Z,99393.98
2018-03-31T14:47:43.925Z,99393.21
2018-03-31T14:50:11.320Z,99384.94
2018-03-31T14:52:38.933Z,99386.63
2018-03-31T14:55:06.350Z,99397.92
2018-03-31T14:57:33.713Z,99391.52
2018-03-31T15:00:01.212Z,99382.70
2018-03-31T15:02:28.656Z,99384.97
2018-03-31T15:04:56.061Z,99383.33
2018-03-31T15:07:23.433Z,99385.95
2018-03-31T15:09:50.778Z,99384.36
2018-03-31T15:12:18.116Z,99373.95
2018-03-31T15:14:45.451Z,99373.10
2018-03-31T15:17:12.809Z,99370.20
2018-03-31T15:19:40.136Z,99364.36
2018-03-31T15:22:07.620Z,99361.17
2018-03-31T15:24:35.003Z,99361.72
2018-03-31T15:27:02.434Z,99361.23
2018-03-31T15:29:29.946Z,99366.92
2018-03-31T15:31:57.374Z,99366.30
2018-03-31T15:34:24.749Z,99363.75
2018-03-31T15:36:52.145Z,99362.93
2018-03-31T15:39:19.635Z,99359.94
2018-03-31T15:41:46.980Z,99363.75
2018-03-31T15:44:14.334Z,99367.94
2018-03-31T15:46:41.762Z,99359.02
2018-03-31T15:49:09.096Z,99361.63
2018-03-31T15:51:36.462Z,99356.61
2018-03-31T15:54:03.825Z,99361.42
2018-03-31T15:56:31.178Z,99361.73
2018-03-31T15:58:58.542Z,99358.52
2018-03-31T16:01:25.950Z,99358.45
2018-03-31T16:03:53.411Z,99356.47
2018-03-31T16:06:20.764Z,99355.88
2018-03-31T16:08:48.132Z,99349.62
2018-03-31T16:11:15.584Z,99357.75
2018-03-31T16:13:43.241Z,99316.30
2018-03-31T16:16:10.774Z,99344.17
2018-03-31T16:18:38.150Z,99346.20
2018-03-31T16:21:05.508Z,99339.07
2018-03-31T16:23:32.897Z,99342.72
2018-03-31T16:26:00.499Z,99335.63
2018-03-31T16:28:28.062Z,99348.20
2018-03-31T16:30:55.425Z,99337.63
2018-03-31T16:33:22.760Z,99351.27
2018-03-31T16:35:50.108Z,99356.62
2018-03-31T16:38:17.481Z,99355.25
2018-03-31T16:40:44.833Z,99365.09
2018-03-31T16:43:12.201Z,99357.84
2018-03-31T16:45:39.563Z,99365.88
2018-03-31T16:48:06.908Z,99363.39
2018-03-31T16:50:34.245Z,99365.53
2018-03-31T16:53:01.598Z,99368.53
2018-03-31T16:55:28.964Z,99376.64
2018-03-31T16:57:56.607Z,99373.97
2018-03-31T17:00:24.267Z,99370.11
2018-03-31T17:02:51.688Z,99372.14
2018-03-31T17:05:19.134Z,99366.07
2018-03-31T17:07:46.570Z,99369.02
2018-03-31T17:10:13.981Z,99367.33
2018-03-31T17:12:41.341Z,99370.63
2018-03-31T17:15:08.692Z,99361.95
2018-03-31T17:17:36.232Z,99362.03
2018-03-31T17:20:03.620Z,99367.00
2018-03-31T17:22:30.983Z,99364.69
2018-03-31T17:24:58.303Z,99375.12
2018-03-31T17:27:26.049Z,99376.88
2018-03-31T17:29:53.425Z,99375.69
2018-03-31T17:32:20.845Z,99383.66
2018-03-31T17:34:48.218Z,99378.29
2018-03-31T17:37:15.587Z,99383.92
2018-03-31T17:39:42.985Z,99382.48
2018-03-31T17:42:10.546Z,99392.03
2018-03-31T17:44:38.202Z,99389.58
2018-03-31T17:47:05.620Z,99388.28
2018-03-31T17:49:33.019Z,99391.13
2018-03-31T17:52:00.394Z,99386.59
2018-03-31T17:54:27.769Z,99398.29
2018-03-31T17:56:55.150Z,99389.63
2018-03-31T17:59:22.760Z,99390.13
2018-03-31T18:01:50.183Z,99390.11
2018-03-31T18:04:17.602Z,99391.22
2018-03-31T18:06:45.028Z,99390.53
2018-03-31T18:09:12.411Z,99383.27
2018-03-31T18:11:39.781Z,99389.52
2018-03-31T18:14:07.156Z,99385.34
2018-03-31T18:16:34.523Z,99391.47
2018-03-31T18:19:01.864Z,99388.11
2018-03-31T18:21:29.237Z,99391.83
2018-03-31T18:23:56.588Z,99390.09
2018-03-31T18:26:24.003Z,99387.59
2018-03-31T18:28:51.418Z,99389.77
2018-03-31T18:31:18.942Z,99391.45
2018-03-31T18:33:46.532Z,99392.41
2018-03-31T18:36:13.947Z,99390.78
2018-03-31T18:38:41.321Z,99393.09
2018-03-31T18:41:08.700Z,99386.77
2018-03-31T18:43:36.056Z,99389.31
2018-03-31T18:46:03.466Z,99388.98
2018-03-31T18:48:30.906Z,99393.50
2018-03-31T18:50:58.267Z,99389.08
2018-03-31T18:53:25.632Z,99392.13
2018-03-31T18:55:53.027Z,99392.34
2018-03-31T18:58:20.422Z,99391.41
2018-03-31T19:00:47.839Z,99383.02
2018-03-31T19:03:15.221Z,99382.00
2018-03-31T19:05:42.626Z,99382.61
2018-03-31T19:08:10.223Z,99372.62
2018-03-31T19:10:37.689Z,99374.41
2018-03-31T19:13:05.140Z,99384.52
2018-03-31T19:15:32.505Z,99373.16
2018-03-31T19:17:59.868Z,99373.25
2018-03-31T19:20:27.278Z,99367.55
2018-03-31T19:22:54.843Z,99369.83
2018-03-31T19:25:26.511Z,99363.23
2018-03-31T19:27:53.904Z,99359.22
2018-03-31T19:30:25.487Z,99356.66
2018-03-31T19:32:52.851Z,99373.95
2018-03-31T19:35:20.224Z,99372.62
2018-03-31T19:37:47.734Z,99374.88
2018-03-31T19:40:15.094Z,99373.44
2018-03-31T19:42:42.501Z,99366.28
2018-03-31T19:45:09.907Z,99366.74
2018-03-31T19:47:37.269Z,99363.91
2018-03-31T19:50:04.914Z,99359.63
2018-03-31T19:52:32.309Z,99362.91
2018-03-31T19:54:59.693Z,99368.05
2018-03-31T19:57:27.069Z,99370.31
2018-03-31T19:59:54.414Z,99375.91
2018-03-31T20:02:21.800Z,99368.45
2018-03-31T20:04:49.270Z,99369.14
2018-03-31T20:07:16.801Z,99377.28
2018-03-31T20:09:44.176Z,99381.82
2018-03-31T20:12:11.581Z,99380.16
2018-03-31T20:14:38.962Z,99380.53
2018-03-31T20:17:06.749Z,99386.99
2018-03-31T20:19:39.853Z,99386.80
2018-03-31T20:22:07.305Z,99387.98
2018-03-31T20:24:34.744Z,99388.59
2018-03-31T20:27:02.125Z,99388.67
2018-03-31T20:29:29.962Z,99392.40
2018-03-31T20:31:57.372Z,99394.64
2018-03-31T20:34:25.700Z,99387.98
2018-03-31T20:36:53.113Z,99387.25
2018-03-31T20:39:20.468Z,99387.80
2018-03-31T20:41:47.882Z,99394.80
2018-03-31T20:44:15.225Z,99398.78
2018-03-31T20:46:42.748Z,99403.02
2018-03-31T20:49:10.094Z,99398.00
2018-03-31T20:51:37.558Z,99389.89
2018-03-31T20:54:04.925Z,99391.55
2018-03-31T20:56:32.423Z,99397.59
2018-03-31T20:58:59.745Z,99399.97
2018-03-31T21:01:27.154Z,99399.29
2018-03-31T21:03:54.569Z,99393.66
2018-03-31T21:06:21.952Z,99393.49
2018-03-31T21:08:49.314Z,99387.12
2018-03-31T21:11:16.896Z,99386.47
2018-03-31T21:13:44.261Z,99389.95
2018-03-31T21:16:11.637Z,99388.13
2018-03-31T21:18:39.181Z,99388.36
2018-03-31T21:21:06.667Z,99394.45
2018-03-31T21:23:34.020Z,99376.88
2018-03-31T21:26:01.497Z,99377.73
2018-03-31T21:28:28.861Z,99378.81
2018-03-31T21:30:56.258Z,99379.11
2018-03-31T21:33:23.617Z,99376.84
2018-03-31T21:35:51.012Z,99384.59
2018-03-31T21:38:18.409Z,99379.58
2018-03-31T21:40:46.002Z,99373.48
2018-03-31T21:43:13.360Z,99380.77
2018-03-31T21:45:40.855Z,99377.08
2018-03-31T21:48:08.441Z,99381.57
2018-03-31T21:50:36.174Z,99385.41
2018-03-31T21:53:03.554Z,99379.46
2018-03-31T21:55:30.939Z,99388.75
2018-03-31T21:57:58.272Z,99386.38
2018-03-31T22:00:29.406Z,99383.02
2018-03-31T22:02:56.889Z,99390.84
2018-03-31T22:05:24.300Z,99395.33
2018-03-31T22:07:51.697Z,99383.37
2018-03-31T22:10:19.148Z,99373.17
2018-03-31T22:12:46.578Z,99379.00
2018-03-31T22:15:19.226Z,99368.61
2018-03-31T22:17:46.639Z,99375.77
2018-03-31T22:20:13.992Z,99383.95
2018-03-31T22:22:40.741Z,99391.17
2018-03-31T22:25:08.124Z,99389.24
2018-03-31T22:27:35.592Z,99385.16
2018-03-31T22:30:03.506Z,99392.16
2018-03-31T22:32:30.880Z,99383.27
2018-03-31T22:34:58.207Z,99391.41
2018-03-31T22:37:25.636Z,99386.26
2018-03-31T22:39:52.984Z,99389.89
2018-03-31T22:42:20.570Z,99388.72
2018-03-31T22:44:47.967Z,99382.09
2018-03-31T22:47:15.338Z,99380.47
2018-03-31T22:49:42.950Z,99378.71
2018-03-31T22:52:10.317Z,99375.59
2018-03-31T22:54:37.793Z,99381.17
2018-03-31T22:57:05.209Z,99380.26
2018-03-31T22:59:32.969Z,99377.81
2018-03-31T23:02:00.378Z,99369.64
2018-03-31T23:04:27.769Z,99366.77
2018-03-31T23:06:55.147Z,99374.67
2018-03-31T23:09:22.558Z,99377.55
2018-03-31T23:11:50.184Z,99383.49
2018-03-31T23:14:17.596Z,99387.44
2018-03-31T23:16:44.986Z,99383.37
2018-03-31T23:19:12.379Z,99382.45
2018-03-31T23:21:39.750Z,99375.37
2018-03-31T23:24:07.130Z,99375.64
2018-03-31T23:26:34.495Z,99379.85
2018-03-31T23:29:02.115Z,99384.21
2018-03-31T23:31:29.464Z,99377.30
2018-03-31T23:33:56.804Z,99376.61
2018-03-31T23:36:24.162Z,99369.02
2018-03-31T23:38:51.496Z,99370.66
2018-03-31T23:41:18.844Z,99379.19
2018-03-31T23:43:46.219Z,99378.80
2018-03-31T23:46:13.651Z,99376.91
2018-03-31T23:48:41.127Z,99388.14
2018-03-31T23:51:08.491Z,99378.13
2018-03-31T23:53:35.828Z,99385.00
2018-03-31T23:56:03.234Z,99381.91
2018-03-31T23:58:30.577Z,99374.77
